Time;durP1;ratioP1;P1;durP2;ratioP2;P2;SDS_P1;SDS_P2;PMS_P1;PMS_P2;Temp;Humidity;BMP_temperature;BMP_pressure;BME280_temperature;BME280_humidity;BME280_pressure;Samples;Min_cycle;Max_cycle;Signal;HPM_P1;HPM_P2
2022/01/15 00:02:03;;;;;;;26.25;11.60;;;;;;;-0.98;84.55;97608.13;5030855;28;20049;-76
2022/01/15 00:04:29;;;;;;;25.33;12.23;;;;;;;-1.01;84.24;97607.72;5031009;28;20065;-75
2022/01/15 00:06:55;;;;;;;20.25;11.80;;;;;;;-1.00;83.93;97604.84;5031084;28;20041;-75
2022/01/15 00:09:22;;;;;;;21.23;11.55;;;;;;;-1.00;83.66;97593.31;5030708;28;20053;-75
2022/01/15 00:11:48;;;;;;;21.90;11.63;;;;;;;-1.04;83.49;97587.59;5030975;28;20052;-75
2022/01/15 00:14:23;;;;;;;20.55;11.50;;;;;;;-1.00;83.09;97604.84;5030277;28;20056;-75
2022/01/15 00:16:56;;;;;;;22.98;12.82;;;;;;;-1.04;83.04;97590.28;5010912;28;20053;-75
2022/01/15 00:19:36;;;;;;;21.88;11.38;;;;;;;-1.06;83.24;97584.31;5010816;28;20128;-75
2022/01/15 00:22:02;;;;;;;18.23;11.13;;;;;;;-1.04;82.68;97592.94;5010753;28;20117;-75
2022/01/15 00:24:29;;;;;;;21.27;11.25;;;;;;;-1.02;82.43;97595.41;5011268;28;20512;-75
2022/01/15 00:26:56;;;;;;;22.20;11.98;;;;;;;-1.03;82.48;97583.88;5011068;28;20045;-75
2022/01/15 00:29:22;;;;;;;22.55;10.93;;;;;;;-1.04;82.63;97587.59;5010397;28;20054;-75
2022/01/15 00:31:49;;;;;;;22.70;12.27;;;;;;;-1.07;82.42;97582.66;5010655;28;20045;-75
2022/01/15 00:34:15;;;;;;;22.25;12.15;;;;;;;-1.10;82.52;97583.94;5010368;28;20045;-75
2022/01/15 00:36:43;;;;;;;19.30;10.48;;;;;;;-1.11;82.44;97581.44;5010621;28;20068;-75
2022/01/15 00:39:09;;;;;;;20.90;11.90;;;;;;;-1.17;82.26;97587.66;5010433;28;20088;-75
2022/01/15 00:41:36;;;;;;;21.38;11.10;;;;;;;-1.16;82.33;97589.28;5010813;28;20056;-75
2022/01/15 00:44:02;;;;;;;22.27;12.43;;;;;;;-1.23;82.20;97577.81;5010322;28;20049;-74
2022/01/15 00:46:29;;;;;;;19.92;11.13;;;;;;;-1.24;82.25;97577.00;5028550;28;20156;-75
2022/01/15 00:48:55;;;;;;;19.33;9.98;;;;;;;-1.24;82.36;97574.34;5030388;28;20501;-75
2022/01/15 00:51:22;;;;;;;18.73;11.18;;;;;;;-1.24;82.30;97570.84;5029828;28;20054;-75
2022/01/15 00:53:50;;;;;;;20.73;10.93;;;;;;;-1.28;82.46;97569.63;5030387;28;20052;-75
2022/01/15 00:56:16;;;;;;;21.83;10.85;;;;;;;-1.29;82.56;97562.63;5029583;28;20492;-75
2022/01/15 00:58:43;;;;;;;18.50;10.68;;;;;;;-1.27;82.83;97576.59;5030288;28;20401;-75
2022/01/15 01:01:09;;;;;;;19.23;10.60;;;;;;;-1.28;82.80;97575.78;5029595;28;20053;-75
2022/01/15 01:03:36;;;;;;;19.50;10.95;;;;;;;-1.25;82.34;97574.53;5030051;28;20436;-75
2022/01/15 01:06:02;;;;;;;17.83;10.40;;;;;;;-1.27;82.29;97573.94;5029825;28;20056;-75
2022/01/15 01:08:29;;;;;;;21.45;11.30;;;;;;;-1.33;81.99;97573.75;5030092;28;20057;-76
2022/01/15 01:10:59;;;;;;;20.40;10.73;;;;;;;-1.36;82.04;97574.19;5029819;28;20673;-75
2022/01/15 01:20:01;;;;;;;18.33;10.45;;;;;;;-1.40;82.08;97567.63;5029775;28;20049;-75
2022/01/15 01:24:42;;;;;;;19.60;10.93;;;;;;;-1.50;82.85;97566.44;5029652;28;20434;-75
2022/01/15 01:27:15;;;;;;;18.83;10.18;;;;;;;-1.48;82.77;97565.16;5029538;28;20414;-75
2022/01/15 01:29:53;;;;;;;19.48;10.77;;;;;;;-1.47;82.46;97561.47;5029728;28;20055;-75
2022/01/15 01:35:10;;;;;;;21.20;11.25;;;;;;;-1.52;82.33;97561.28;5029682;28;20111;-75
2022/01/15 01:37:41;;;;;;;16.67;10.13;;;;;;;-1.52;82.37;97558.59;5029570;28;20124;-75
2022/01/15 01:40:18;;;;;;;20.98;9.73;;;;;;;-1.53;82.26;97551.63;5028653;28;20049;-75
2022/01/15 01:42:57;;;;;;;20.40;10.23;;;;;;;-1.55;82.17;97559.03;5029452;28;20049;-75
2022/01/15 01:45:24;;;;;;;19.45;10.50;;;;;;;-1.56;82.37;97553.91;5028462;28;20080;-75
2022/01/15 01:47:50;;;;;;;19.35;9.60;;;;;;;-1.55;82.54;97553.69;5029364;28;20453;-75
2022/01/15 01:50:19;;;;;;;16.67;9.85;;;;;;;-1.53;82.41;97540.13;5028786;28;20045;-75
2022/01/15 01:52:48;;;;;;;22.88;10.00;;;;;;;-1.55;82.32;97542.19;5029334;28;20044;-76
2022/01/15 01:55:16;;;;;;;17.98;9.52;;;;;;;-1.56;82.27;97541.38;5028776;28;20416;-75
2022/01/15 01:57:43;;;;;;;19.33;9.73;;;;;;;-1.54;82.33;97550.00;5028282;28;20049;-76
2022/01/15 02:00:13;;;;;;;19.90;10.55;;;;;;;-1.55;81.86;97550.22;5028193;28;20072;-75
2022/01/15 02:02:40;;;;;;;19.33;9.80;;;;;;;-1.61;81.79;97543.88;5029286;28;20052;-75
2022/01/15 02:05:08;;;;;;;23.60;10.52;;;;;;;-1.67;81.89;97534.00;5028432;28;20042;-75
2022/01/15 02:07:35;;;;;;;18.88;10.60;;;;;;;-1.67;81.97;97531.34;5028880;28;20068;-76
2022/01/15 02:10:04;;;;;;;21.65;11.00;;;;;;;-1.70;82.09;97535.25;5028206;28;20093;-75
2022/01/15 02:12:31;;;;;;;21.60;10.45;;;;;;;-1.72;82.00;97532.00;5028927;28;20052;-76
2022/01/15 02:14:58;;;;;;;19.85;11.07;;;;;;;-1.73;82.24;97529.50;5028507;28;20045;-75
2022/01/15 02:17:26;;;;;;;23.40;11.93;;;;;;;-1.75;82.29;97516.38;5028358;28;20045;-75
2022/01/15 02:20:10;;;;;;;20.85;11.38;;;;;;;-1.75;82.56;97515.56;5028507;28;20045;-75
2022/01/15 02:25:21;;;;;;;21.45;10.57;;;;;;;-1.73;82.74;97510.81;5028250;28;20758;-76
2022/01/15 02:27:47;;;;;;;22.10;11.15;;;;;;;-1.76;82.47;97508.59;5028582;28;20225;-75
2022/01/15 02:30:15;;;;;;;22.13;10.90;;;;;;;-1.77;82.41;97507.78;5027960;28;20489;-75
2022/01/15 02:32:41;;;;;;;21.33;10.32;;;;;;;-1.76;82.38;97503.25;5028556;28;20053;-75
2022/01/15 02:35:12;;;;;;;17.90;10.15;;;;;;;-1.77;82.32;97501.63;5027968;28;20421;-75
2022/01/15 02:37:39;;;;;;;19.05;10.93;;;;;;;-1.79;82.38;97501.81;5028325;28;20562;-75
2022/01/15 02:40:10;;;;;;;17.35;9.98;;;;;;;-1.80;82.35;97502.03;5027536;28;20056;-75
2022/01/15 02:42:37;;;;;;;17.98;9.50;;;;;;;-1.80;82.46;97497.50;5028357;28;20053;-75
2022/01/15 02:45:06;;;;;;;18.92;10.27;;;;;;;-1.81;82.26;97489.72;5027067;28;20057;-75
2022/01/15 02:50:20;;;;;;;19.52;10.07;;;;;;;-1.82;82.32;97498.75;5026047;28;20595;-75
2022/01/15 02:52:47;;;;;;;20.60;10.40;;;;;;;-1.82;82.09;97485.41;5028077;28;20041;-75
2022/01/15 02:55:13;;;;;;;16.58;9.48;;;;;;;-1.85;81.96;97486.63;5027892;28;20056;-75
2022/01/15 02:57:40;;;;;;;15.75;9.77;;;;;;;-1.88;81.98;97485.22;5028038;28;20045;-75
2022/01/15 03:00:08;;;;;;;19.85;11.20;;;;;;;-1.88;81.84;97479.03;5027375;28;20056;-75
2022/01/15 03:02:34;;;;;;;19.48;10.40;;;;;;;-1.92;81.81;97467.97;5027742;28;20060;-76
2022/01/15 03:05:00;;;;;;;17.67;9.90;;;;;;;-1.94;81.79;97464.69;5027947;28;20045;-76
2022/01/15 03:07:28;;;;;;;16.65;9.85;;;;;;;-1.91;81.62;97460.78;5027419;28;20041;-75
2022/01/15 03:09:55;;;;;;;19.83;9.57;;;;;;;-1.94;81.71;97464.69;5027510;28;20052;-75
2022/01/15 03:12:22;;;;;;;18.10;10.25;;;;;;;-1.94;81.90;97456.69;5027371;28;23280;-75
2022/01/15 03:14:49;;;;;;;17.80;9.75;;;;;;;-1.92;81.85;97454.63;5027442;28;20170;-75
2022/01/15 03:17:16;;;;;;;19.45;9.50;;;;;;;-1.92;81.90;97462.66;5027481;28;20042;-75
2022/01/15 03:19:43;;;;;;;17.55;9.27;;;;;;;-1.95;82.00;97460.38;5027243;28;20068;-75
2022/01/15 03:22:09;;;;;;;17.23;9.52;;;;;;;-1.95;81.93;97463.06;5027455;28;20061;-75
2022/01/15 03:24:37;;;;;;;18.73;10.20;;;;;;;-1.94;81.85;97448.66;5027473;28;20053;-75
2022/01/15 03:27:04;;;;;;;18.08;9.40;;;;;;;-1.93;81.43;97450.34;5027247;28;20432;-76
2022/01/15 03:29:31;;;;;;;18.08;9.70;;;;;;;-1.98;81.32;97450.16;5027619;28;20049;-75
2022/01/15 03:31:57;;;;;;;14.77;8.63;;;;;;;-1.98;81.30;97447.47;5027586;28;20057;-75
2022/01/15 03:34:24;;;;;;;19.35;9.75;;;;;;;-2.00;81.08;97441.50;5027229;28;20049;-75
2022/01/15 03:36:50;;;;;;;15.73;8.93;;;;;;;-2.04;81.34;97448.31;5027232;28;20046;-75
2022/01/15 03:39:17;;;;;;;16.83;9.63;;;;;;;-2.04;81.35;97442.97;5026877;28;20416;-75
2022/01/15 03:41:45;;;;;;;18.40;9.98;;;;;;;-2.05;81.67;97446.66;5027194;28;20056;-75
2022/01/15 03:44:12;;;;;;;16.45;9.32;;;;;;;-2.02;81.67;97445.44;5024758;28;20084;-75
2022/01/15 03:46:38;;;;;;;15.73;9.13;;;;;;;-2.01;81.70;97447.06;5027316;28;20052;-75
2022/01/15 03:49:05;;;;;;;16.70;9.65;;;;;;;-2.06;81.89;97450.38;5026909;28;20049;-75
2022/01/15 03:51:31;;;;;;;17.10;9.48;;;;;;;-2.07;81.77;97443.41;5027200;28;20057;-75
2022/01/15 03:53:58;;;;;;;18.38;9.13;;;;;;;-2.08;81.72;97441.78;5027273;28;20128;-75
2022/01/15 03:56:25;;;;;;;19.98;9.60;;;;;;;-2.08;81.77;97440.94;5026983;28;20049;-75
2022/01/15 03:58:52;;;;;;;20.02;9.88;;;;;;;-2.07;81.58;97443.41;5027450;28;20045;-75
2022/01/15 04:01:19;;;;;;;22.73;9.63;;;;;;;-2.08;81.69;97449.78;5026628;28;20049;-75
2022/01/15 04:03:45;;;;;;;17.40;9.43;;;;;;;-2.04;81.74;97445.63;5027283;28;20703;-75
2022/01/15 04:06:12;;;;;;;18.85;10.02;;;;;;;-1.94;81.81;97446.00;5026891;28;20046;-75
2022/01/15 04:08:38;;;;;;;16.85;10.02;;;;;;;-1.85;81.95;97452.75;5027287;28;20049;-75
2022/01/15 04:11:05;;;;;;;20.75;10.48;;;;;;;-1.76;82.56;97455.19;5026436;28;20432;-75
2022/01/15 04:13:31;;;;;;;17.08;9.93;;;;;;;-1.73;82.71;97455.56;5026638;28;20056;-75
2022/01/15 04:16:00;;;;;;;36.05;12.68;;;;;;;-1.63;83.19;97466.59;5027163;28;20044;-75
2022/01/15 04:18:29;;;;;;;31.83;12.77;;;;;;;-1.52;83.42;97470.44;5027202;28;20064;-75
2022/01/15 04:20:56;;;;;;;31.88;11.55;;;;;;;-1.43;83.68;97471.84;5028763;28;20049;-75
2022/01/15 04:23:23;;;;;;;29.00;12.70;;;;;;;-1.37;83.71;97468.31;5030753;28;20053;-75
2022/01/15 04:25:49;;;;;;;49.97;13.85;;;;;;;-1.27;83.66;97465.19;5030808;28;20049;-75
2022/01/15 04:28:16;;;;;;;44.53;13.93;;;;;;;-1.17;83.85;97464.72;5030549;28;20576;-75
2022/01/15 04:30:47;;;;;;;60.78;16.98;;;;;;;-1.11;84.12;97456.63;5030219;28;20049;-75
2022/01/15 04:33:15;;;;;;;59.88;15.60;;;;;;;-1.04;84.33;97456.59;5030164;28;20080;-75
2022/01/15 04:35:41;;;;;;;57.72;16.38;;;;;;;-0.98;84.56;97462.94;5030895;28;20049;-75
2022/01/15 04:38:11;;;;;;;53.60;16.67;;;;;;;-0.93;84.59;97455.91;5029952;28;20053;-75
2022/01/15 04:40:38;;;;;;;43.33;15.85;;;;;;;-0.86;84.60;97456.66;5030454;28;20053;-75
2022/01/15 04:43:04;;;;;;;56.70;17.52;;;;;;;-0.81;84.94;97453.34;5030098;28;20574;-75
2022/01/15 04:45:31;;;;;;;62.53;16.35;;;;;;;-0.73;85.02;97465.59;5029649;28;20076;-75
2022/01/15 04:47:57;;;;;;;76.80;16.85;;;;;;;-0.69;85.43;97461.44;5030407;28;20072;-76
2022/01/15 04:50:25;;;;;;;56.92;16.10;;;;;;;-0.63;85.58;97463.25;5029719;28;20042;-75
2022/01/15 04:52:52;;;;;;;68.35;16.00;;;;;;;-0.60;86.05;97460.16;5030224;28;20050;-76
2022/01/15 04:55:18;;;;;;;52.25;15.07;;;;;;;-0.54;86.02;97448.56;5029853;28;20061;-75
2022/01/15 04:57:45;;;;;;;43.92;14.77;;;;;;;-0.48;86.13;97442.31;5030285;28;20048;-75
2022/01/15 05:00:14;;;;;;;70.93;15.93;;;;;;;-0.41;85.87;97437.75;5029508;28;20477;-75
2022/01/15 05:02:40;;;;;;;51.90;14.35;;;;;;;-0.35;86.12;97444.88;5030237;28;20076;-76
2022/01/15 05:05:08;;;;;;;65.68;15.55;;;;;;;-0.31;86.14;97442.59;5029703;28;20628;-75
2022/01/15 05:07:36;;;;;;;78.60;16.42;;;;;;;-0.22;86.12;97448.44;5030135;28;20049;-75
2022/01/15 05:10:03;;;;;;;67.97;15.25;;;;;;;-0.18;86.12;97441.59;5029471;28;20045;-75
2022/01/15 05:12:32;;;;;;;80.40;15.90;;;;;;;-0.18;86.03;97439.75;5029969;28;20060;-75
2022/01/15 05:14:58;;;;;;;58.40;15.10;;;;;;;-0.11;86.14;97437.00;5029831;28;20047;-75
2022/01/15 05:17:25;;;;;;;51.17;14.60;;;;;;;-0.06;85.92;97439.81;5029269;28;20041;-75
2022/01/15 05:19:52;;;;;;;95.00;15.80;;;;;;;0.00;86.13;97438.94;5029985;28;20045;-75
2022/01/15 05:22:18;;;;;;;82.57;15.15;;;;;;;0.03;86.23;97435.81;5029027;28;20081;-75
2022/01/15 05:24:46;;;;;;;80.55;15.05;;;;;;;0.07;86.25;97445.03;5029871;28;20133;-76
2022/01/15 05:27:13;;;;;;;88.57;17.17;;;;;;;0.04;86.30;97440.09;5029374;28;20053;-75
2022/01/15 05:29:39;;;;;;;64.75;15.55;;;;;;;0.10;86.29;97449.09;5029810;28;20798;-75
2022/01/15 05:32:07;;;;;;;60.60;14.73;;;;;;;0.16;86.24;97449.06;5027325;28;20050;-75
2022/01/15 05:34:33;;;;;;;65.35;15.18;;;;;;;0.21;86.14;97457.22;5029751;28;20053;-75
2022/01/15 05:37:00;;;;;;;56.50;15.18;;;;;;;0.27;86.27;97452.00;5029475;28;20061;-75
2022/01/15 05:39:26;;;;;;;57.78;14.52;;;;;;;0.32;86.03;97446.81;5028959;28;20049;-76
2022/01/15 05:41:54;;;;;;;78.65;14.98;;;;;;;0.36;86.06;97453.31;5029274;28;20048;-75
2022/01/15 05:44:21;;;;;;;83.07;15.88;;;;;;;0.34;86.15;97460.78;5028927;28;20056;-75
2022/01/15 05:46:48;;;;;;;73.25;15.43;;;;;;;0.34;86.34;97458.09;5029904;28;20049;-75
2022/01/15 05:49:15;;;;;;;82.25;15.02;;;;;;;0.34;86.37;97458.09;5028997;28;20057;-75
2022/01/15 05:51:41;;;;;;;68.00;14.60;;;;;;;0.32;86.27;97457.53;5028998;28;20504;-75
2022/01/15 05:54:10;;;;;;;54.78;14.50;;;;;;;0.36;86.29;97450.63;5028879;28;20057;-75
2022/01/15 05:56:37;;;;;;;75.80;14.73;;;;;;;0.36;86.39;97447.97;5029473;28;20045;-75
2022/01/15 05:59:06;;;;;;;66.35;15.18;;;;;;;0.33;86.81;97448.44;5028584;28;20056;-75
2022/01/15 06:01:33;;;;;;;52.58;15.30;;;;;;;0.31;86.82;97445.97;5028564;28;20045;-75
2022/01/15 06:03:59;;;;;;;75.95;16.98;;;;;;;0.36;86.81;97454.13;5029141;28;20057;-75
2022/01/15 06:06:26;;;;;;;58.30;13.82;;;;;;;0.42;86.84;97444.41;5028505;28;20045;-75
2022/01/15 06:08:52;;;;;;;52.72;14.20;;;;;;;0.48;86.71;97452.34;5028937;28;20044;-75
2022/01/15 06:11:20;;;;;;;56.97;14.07;;;;;;;0.52;86.52;97447.31;5028096;28;20049;-76
2022/01/15 06:13:47;;;;;;;57.97;14.50;;;;;;;0.57;86.53;97446.66;5028583;28;20053;-75
2022/01/15 06:16:15;;;;;;;62.10;15.07;;;;;;;0.54;86.71;97445.25;5028483;28;20073;-75
2022/01/15 06:18:42;;;;;;;59.90;14.93;;;;;;;0.54;86.99;97450.63;5028641;28;20076;-75
2022/01/15 06:21:09;;;;;;;60.65;14.38;;;;;;;0.52;86.86;97458.03;5027862;28;20045;-75
2022/01/15 06:23:35;;;;;;;68.75;15.68;;;;;;;0.54;87.06;97453.28;5028640;28;20390;-75
2022/01/15 06:26:02;;;;;;;58.15;14.57;;;;;;;0.53;87.20;97449.00;5028224;28;20056;-75
2022/01/15 06:28:29;;;;;;;40.25;12.90;;;;;;;0.53;87.40;97449.00;5028661;28;20041;-75
2022/01/15 06:30:55;;;;;;;53.88;13.65;;;;;;;0.55;87.59;97452.25;5028183;28;20060;-75
2022/01/15 06:33:23;;;;;;;43.35;13.10;;;;;;;0.58;87.72;97467.88;5027868;28;20048;-75
2022/01/15 06:35:49;;;;;;;43.17;13.35;;;;;;;0.61;87.80;97456.69;5028366;28;20624;-75
2022/01/15 06:38:16;;;;;;;51.95;13.05;;;;;;;0.66;87.58;97456.81;5027710;28;20073;-76
2022/01/15 06:40:42;;;;;;;51.65;11.75;;;;;;;0.72;87.74;97452.41;5028148;28;20053;-75
2022/01/15 06:43:10;;;;;;;47.63;11.57;;;;;;;0.72;87.57;97461.28;5027388;28;20057;-75
2022/01/15 06:45:37;;;;;;;47.05;12.48;;;;;;;0.74;87.84;97456.53;5027378;28;20049;-75
2022/01/15 06:48:04;;;;;;;39.90;12.20;;;;;;;0.78;87.62;97452.34;5027883;28;20539;-75
2022/01/15 06:50:32;;;;;;;40.17;11.32;;;;;;;0.80;87.80;97456.66;5027956;28;20049;-75
2022/01/15 06:52:59;;;;;;;47.20;11.50;;;;;;;0.81;88.02;97455.59;5027985;28;20428;-75
2022/01/15 06:55:25;;;;;;;46.08;11.73;;;;;;;0.86;87.94;97458.41;5027593;28;20052;-75
2022/01/15 06:57:53;;;;;;;45.33;11.68;;;;;;;0.86;88.12;97458.41;5028067;28;20044;-75
2022/01/15 07:00:20;;;;;;;51.78;13.52;;;;;;;0.90;87.97;97454.25;5027452;28;20049;-75
2022/01/15 07:02:47;;;;;;;51.20;12.93;;;;;;;0.91;88.04;97461.22;5028053;28;20056;-75
2022/01/15 07:05:14;;;;;;;50.13;13.57;;;;;;;0.92;88.02;97462.84;5027836;28;20049;-75
2022/01/15 07:07:45;;;;;;;49.72;13.63;;;;;;;0.94;88.09;97458.06;5028106;28;20736;-75
2022/01/15 07:10:12;;;;;;;50.00;12.38;;;;;;;0.95;88.25;97459.72;5027613;28;20132;-76
2022/01/15 07:12:38;;;;;;;46.22;13.35;;;;;;;0.96;88.34;97459.50;5027606;28;20520;-75
2022/01/15 07:15:05;;;;;;;61.60;12.98;;;;;;;0.99;88.44;97458.19;5027446;28;20050;-75
2022/01/15 07:17:32;;;;;;;75.88;14.43;;;;;;;1.01;88.13;97456.13;5027789;28;20083;-75
2022/01/15 07:19:59;;;;;;;61.10;14.15;;;;;;;1.04;88.28;97458.31;5027888;28;20069;-75
2022/01/15 07:22:25;;;;;;;48.00;12.85;;;;;;;1.07;88.10;97454.38;5027057;28;20065;-73
2022/01/15 07:24:53;;;;;;;49.17;13.02;;;;;;;1.08;88.04;97462.19;5028048;28;20049;-74
2022/01/15 07:27:19;;;;;;;52.30;14.23;;;;;;;1.13;88.05;97458.81;5027544;28;20049;-74
2022/01/15 07:29:46;;;;;;;44.40;12.70;;;;;;;1.15;88.11;97457.56;5027716;28;20050;-74
2022/01/15 07:32:12;;;;;;;43.90;12.23;;;;;;;1.14;88.06;97455.91;5027179;28;20056;-74
2022/01/15 07:34:39;;;;;;;42.92;11.80;;;;;;;1.16;87.98;97461.88;5027457;28;20077;-73
2022/01/15 07:37:05;;;;;;;37.72;11.70;;;;;;;1.21;87.76;97456.63;5027375;28;20045;-73
2022/01/15 07:39:34;;;;;;;30.52;10.52;;;;;;;1.20;87.89;97457.69;5027155;28;20046;-74
2022/01/15 07:42:03;;;;;;;33.63;10.88;;;;;;;1.25;87.99;97457.81;5027422;28;20061;-74
2022/01/15 07:44:29;;;;;;;35.17;11.23;;;;;;;1.31;87.59;97458.75;5026621;28;20079;-73
2022/01/15 07:46:56;;;;;;;37.97;12.40;;;;;;;1.27;87.76;97455.72;5028005;28;20056;-73
2022/01/15 07:49:22;;;;;;;32.65;11.05;;;;;;;1.32;87.54;97452.34;5027378;28;20060;-73
2022/01/15 07:51:49;;;;;;;35.78;11.75;;;;;;;1.36;87.79;97455.34;5027251;28;20041;-73
2022/01/15 07:54:15;;;;;;;44.33;13.05;;;;;;;1.35;87.71;97451.84;5027317;28;20065;-73
2022/01/15 07:56:42;;;;;;;41.97;12.13;;;;;;;1.37;87.53;97459.69;5030934;28;20053;-74
2022/01/15 07:59:09;;;;;;;32.65;11.27;;;;;;;1.38;87.58;97456.75;5031212;28;20056;-73
2022/01/15 08:01:36;;;;;;;34.70;10.65;;;;;;;1.39;87.74;97449.53;5031279;28;20408;-73
2022/01/15 08:04:03;;;;;;;31.75;10.88;;;;;;;1.40;87.47;97441.22;5031447;28;20061;-75
2022/01/15 08:06:30;;;;;;;35.22;11.40;;;;;;;1.41;87.74;97442.91;5031463;28;20052;-73
2022/01/15 08:08:57;;;;;;;35.50;11.88;;;;;;;1.43;87.70;97439.97;5031354;28;20065;-73
2022/01/15 08:11:23;;;;;;;30.77;11.23;;;;;;;1.44;87.51;97445.09;5030136;28;20056;-73
2022/01/15 08:13:50;;;;;;;39.67;11.18;;;;;;;1.47;87.69;97435.78;5031105;28;20045;-73
2022/01/15 08:16:17;;;;;;;31.75;10.65;;;;;;;1.47;87.38;97444.63;5030827;28;20606;-73
2022/01/15 08:18:44;;;;;;;33.08;10.93;;;;;;;1.47;87.26;97428.53;5031120;28;20072;-74
2022/01/15 08:21:10;;;;;;;28.48;10.45;;;;;;;1.51;87.24;97439.59;5030257;28;20536;-74
2022/01/15 08:23:38;;;;;;;28.88;10.52;;;;;;;1.52;87.00;97435.91;5031093;28;20052;-73
2022/01/15 08:26:05;;;;;;;32.83;10.05;;;;;;;1.53;86.83;97432.97;5030906;28;20053;-73
2022/01/15 08:28:31;;;;;;;25.45;9.88;;;;;;;1.53;86.62;97432.16;5031043;28;20124;-73
2022/01/15 08:30:58;;;;;;;29.60;10.98;;;;;;;1.55;86.61;97425.47;5030725;28;20049;-73
2022/01/15 08:33:26;;;;;;;29.55;10.35;;;;;;;1.56;86.70;97426.28;5030473;28;20124;-73
2022/01/15 08:35:52;;;;;;;29.38;12.75;;;;;;;1.56;86.62;97421.75;5030698;28;20513;-74
2022/01/15 08:38:19;;;;;;;33.63;12.02;;;;;;;1.60;86.65;97416.72;5030329;28;20053;-74
2022/01/15 08:40:45;;;;;;;28.35;10.68;;;;;;;1.60;86.49;97426.66;5030830;28;20137;-73
2022/01/15 08:43:12;;;;;;;32.03;11.52;;;;;;;1.61;86.42;97417.53;5030262;28;20069;-73
2022/01/15 08:45:39;;;;;;;30.60;10.27;;;;;;;1.60;86.38;97422.09;5029749;28;20424;-73
2022/01/15 08:48:07;;;;;;;29.77;10.75;;;;;;;1.61;86.33;97417.53;5029928;28;20497;-73
2022/01/15 08:50:36;;;;;;;26.35;10.40;;;;;;;1.62;85.96;97420.00;5030262;28;20057;-73
2022/01/15 08:53:04;;;;;;;27.15;11.00;;;;;;;1.65;85.97;97424.09;5030301;28;20534;-73
2022/01/15 08:55:31;;;;;;;27.40;10.68;;;;;;;1.62;86.04;97425.38;5030833;28;20045;-73
2022/01/15 08:57:58;;;;;;;32.92;11.15;;;;;;;1.67;86.06;97422.81;5030176;28;20049;-74
2022/01/15 09:00:27;;;;;;;30.45;11.63;;;;;;;1.70;85.42;97419.63;5029935;28;20399;-73
2022/01/15 09:02:55;;;;;;;28.73;12.18;;;;;;;1.66;85.41;97421.16;5030311;28;20049;-73
2022/01/15 09:05:23;;;;;;;29.02;11.43;;;;;;;1.75;85.47;97425.13;5029409;28;20579;-73
2022/01/15 09:07:51;;;;;;;32.53;11.13;;;;;;;1.84;85.07;97428.28;5029981;28;20412;-73
2022/01/15 09:10:18;;;;;;;31.48;12.57;;;;;;;1.74;84.93;97428.88;5029647;28;20050;-73
2022/01/15 09:12:45;;;;;;;29.25;12.13;;;;;;;1.80;85.16;97417.19;5030203;28;20046;-73
2022/01/15 09:15:14;;;;;;;26.95;10.85;;;;;;;1.83;84.56;97422.09;5029496;28;20060;-73
2022/01/15 09:17:41;;;;;;;25.60;12.13;;;;;;;1.89;84.17;97420.31;5030001;28;20045;-73
2022/01/15 09:20:08;;;;;;;26.08;11.68;;;;;;;1.83;83.79;97422.09;5029292;28;20519;-73
2022/01/15 09:22:35;;;;;;;29.42;12.20;;;;;;;1.83;84.09;97418.59;5029616;28;20045;-73
2022/01/15 09:25:03;;;;;;;30.63;12.35;;;;;;;1.79;83.96;97420.91;5029784;28;20090;-73
2022/01/15 09:30:15;;;;;;;30.00;12.27;;;;;;;1.82;84.42;97415.06;5029144;28;20416;-73
2022/01/15 09:32:44;;;;;;;34.58;13.68;;;;;;;1.83;84.23;97414.03;5029476;28;20669;-73
2022/01/15 09:35:12;;;;;;;32.38;13.10;;;;;;;1.92;84.29;97414.47;5029190;28;20049;-73
2022/01/15 09:37:39;;;;;;;30.05;12.18;;;;;;;1.91;84.26;97418.22;5029606;28;20053;-73
2022/01/15 09:40:10;;;;;;;30.30;13.23;;;;;;;1.93;84.35;97415.28;5028672;28;20522;-73
2022/01/15 09:42:38;;;;;;;34.40;12.93;;;;;;;1.95;84.31;97410.50;5028652;28;20045;-73
2022/01/15 09:45:07;;;;;;;30.95;13.05;;;;;;;1.88;84.05;97420.53;5027136;28;20049;-73
2022/01/15 09:47:34;;;;;;;31.85;12.80;;;;;;;1.90;84.47;97415.78;5027428;28;20064;-73
2022/01/15 09:50:02;;;;;;;33.20;13.45;;;;;;;1.92;84.93;97427.09;5028830;28;20042;-73
2022/01/15 09:52:31;;;;;;;33.83;13.88;;;;;;;1.96;84.66;97417.50;5028258;28;20045;-73
2022/01/15 09:54:57;;;;;;;29.95;12.65;;;;;;;1.97;84.50;97416.44;5028762;28;20042;-73
2022/01/15 09:57:25;;;;;;;28.73;12.20;;;;;;;2.00;83.95;97402.56;5028499;28;20431;-73
2022/01/15 09:59:52;;;;;;;27.42;12.85;;;;;;;2.06;84.01;97401.59;5028980;28;20057;-73
2022/01/15 10:02:19;;;;;;;28.90;12.35;;;;;;;2.10;84.05;97405.44;5028772;28;20045;-73
2022/01/15 10:04:45;;;;;;;33.53;13.35;;;;;;;2.14;84.23;97395.88;5029229;28;20064;-73
2022/01/15 10:07:15;;;;;;;28.33;11.90;;;;;;;2.15;84.30;97405.56;5028790;28;20054;-73
2022/01/15 10:09:43;;;;;;;32.90;13.18;;;;;;;2.15;84.14;97386.75;5028800;28;20532;-73
2022/01/15 10:12:11;;;;;;;41.33;13.00;;;;;;;2.11;83.26;97390.94;5028495;28;20049;-73
2022/01/15 10:14:41;;;;;;;30.40;12.40;;;;;;;2.09;83.48;97395.75;5028513;28;20041;-73
2022/01/15 10:17:21;;;;;;;27.50;12.15;;;;;;;2.12;83.55;97391.75;5028343;28;20069;-73
2022/01/15 10:19:48;;;;;;;28.75;12.48;;;;;;;2.19;83.67;97389.75;5028874;28;20556;-73
2022/01/15 10:22:17;;;;;;;31.92;14.02;;;;;;;2.23;83.71;97389.03;5028041;28;20052;-73
2022/01/15 10:24:53;;;;;;;34.08;14.65;;;;;;;2.33;83.86;97383.84;5028207;28;20049;-73
2022/01/15 10:27:22;;;;;;;31.25;14.18;;;;;;;2.38;83.32;97375.06;5028266;28;20049;-73
2022/01/15 10:29:59;;;;;;;34.47;13.88;;;;;;;2.39;82.77;97386.63;5028379;28;20664;-73
2022/01/15 10:32:27;;;;;;;31.70;13.88;;;;;;;2.34;82.45;97385.47;5028023;28;20045;-73
2022/01/15 10:34:53;;;;;;;30.52;13.75;;;;;;;2.40;82.65;97377.50;5028360;28;20630;-73
2022/01/15 10:37:23;;;;;;;27.98;12.63;;;;;;;2.44;82.42;97375.97;5028367;28;20533;-73
2022/01/15 10:40:02;;;;;;;29.55;13.75;;;;;;;2.40;81.83;97372.13;5028103;28;20049;-73
2022/01/15 10:42:29;;;;;;;32.25;14.40;;;;;;;2.37;81.83;97376.13;5027800;28;20128;-73
2022/01/15 10:44:59;;;;;;;33.33;13.98;;;;;;;2.33;81.78;97367.72;5027426;28;20493;-73
2022/01/15 10:47:28;;;;;;;34.00;15.23;;;;;;;2.37;82.32;97378.81;5027620;28;20052;-73
2022/01/15 10:49:58;;;;;;;38.28;15.70;;;;;;;2.35;82.23;97368.31;5028218;28;20052;-73
2022/01/15 10:52:27;;;;;;;35.55;16.42;;;;;;;2.38;82.60;97363.50;5027770;28;20045;-73
2022/01/15 10:55:07;;;;;;;32.15;14.45;;;;;;;2.29;82.71;97361.19;5028545;28;20611;-73
2022/01/15 10:57:36;;;;;;;31.55;14.88;;;;;;;2.29;82.68;97358.50;5027962;28;20080;-73
2022/01/15 11:00:12;;;;;;;33.88;16.20;;;;;;;2.27;82.70;97357.94;5025926;28;20455;-73
2022/01/15 11:02:39;;;;;;;33.10;15.73;;;;;;;2.28;82.88;97348.81;5028344;28;20046;-73
2022/01/15 11:05:22;;;;;;;30.67;14.90;;;;;;;2.30;82.82;97346.72;5027874;28;20057;-73
2022/01/15 11:07:49;;;;;;;31.42;15.02;;;;;;;2.32;82.52;97341.91;5028151;28;20051;-73
2022/01/15 11:10:16;;;;;;;34.13;14.73;;;;;;;2.31;82.57;97336.78;5026121;28;20053;-73
2022/01/15 11:12:42;;;;;;;35.60;17.90;;;;;;;2.28;82.44;97329.19;5027904;28;20053;-73
2022/01/15 11:15:11;;;;;;;31.88;14.75;;;;;;;2.24;82.11;97318.09;5027492;28;20100;-73
2022/01/15 11:17:39;;;;;;;29.70;14.35;;;;;;;2.19;81.58;97318.00;5027974;28;20049;-73
2022/01/15 11:20:07;;;;;;;29.83;14.45;;;;;;;2.21;81.96;97313.22;5027418;28;20049;-73
2022/01/15 11:22:35;;;;;;;29.77;14.55;;;;;;;2.25;82.42;97314.38;5027825;28;20132;-72
2022/01/15 11:25:02;;;;;;;31.90;14.93;;;;;;;2.21;81.76;97310.53;5027487;28;20060;-73
2022/01/15 11:27:30;;;;;;;30.23;15.13;;;;;;;2.22;81.36;97314.03;5027881;28;20492;-73
2022/01/15 11:29:58;;;;;;;34.13;14.25;;;;;;;2.21;81.51;97307.84;5027630;28;20124;-73
2022/01/15 11:32:28;;;;;;;30.67;15.00;;;;;;;2.25;81.40;97308.19;5027231;28;20045;-73
2022/01/15 11:35:04;;;;;;;32.40;14.52;;;;;;;2.26;81.49;97305.25;5027543;28;20049;-74
2022/01/15 11:37:40;;;;;;;33.17;15.45;;;;;;;2.30;81.53;97306.41;5027844;28;20416;-74
2022/01/15 11:40:45;;;;;;;33.83;15.60;;;;;;;2.41;81.09;97303.91;5026925;28;20046;-73
2022/01/15 11:43:37;;;;;;;29.52;13.88;;;;;;;2.46;81.11;97312.88;4965634;28;20529;-73
2022/01/15 11:46:05;;;;;;;31.60;14.68;;;;;;;2.43;81.23;97307.16;5006494;28;20058;-73